Time;durP1;ratioP1;P1;durP2;ratioP2;P2;SDS_P1;SDS_P2;PMS_P1;PMS_P2;Temp;Humidity;BMP_temperature;BMP_pressure;BME280_temperature;BME280_humidity;BME280_pressure;Samples;Min_cycle;Max_cycle;Signal;HPM_P1;HPM_P2
2023/04/29 00:00:39;;;;;;;16.23;8.77;;;;;;;12.98;57.73;99031.06;4380511;32;33537;-93
2023/04/29 00:03:07;;;;;;;15.25;8.80;;;;;;;13.06;54.09;99024.13;4361446;32;34080;-83
2023/04/29 00:05:35;;;;;;;17.83;8.38;;;;;;;13.04;56.55;99020.69;4362663;32;34778;-95
2023/04/29 00:08:04;;;;;;;15.07;8.90;;;;;;;13.07;56.91;99028.50;4369583;32;33872;-84
2023/04/29 00:10:31;;;;;;;14.13;7.70;;;;;;;13.41;55.76;99018.09;4380147;32;34383;-90
2023/04/29 00:12:59;;;;;;;17.17;8.45;;;;;;;13.24;55.55;99017.25;4364958;32;34096;-84
2023/04/29 00:15:27;;;;;;;22.35;8.75;;;;;;;13.30;55.89;99014.66;4361304;32;34148;-96
2023/04/29 00:17:54;;;;;;;16.80;8.57;;;;;;;13.40;55.72;99018.94;4372884;32;34114;-83
2023/04/29 00:20:22;;;;;;;17.50;8.48;;;;;;;13.76;54.82;99019.78;4367307;32;34214;-84
2023/04/29 00:22:49;;;;;;;18.73;8.65;;;;;;;13.65;55.65;99014.59;4357472;32;33783;-83
2023/04/29 00:25:18;;;;;;;16.23;8.45;;;;;;;13.87;54.54;99015.41;4370591;32;33964;-83
2023/04/29 00:27:45;;;;;;;21.20;9.07;;;;;;;13.82;55.21;99019.75;4377354;32;33991;-82
2023/04/29 00:30:12;;;;;;;17.85;8.77;;;;;;;13.60;55.48;99013.75;4382144;32;33338;-83
2023/04/29 00:32:40;;;;;;;19.90;9.38;;;;;;;13.65;55.60;99017.19;4379399;32;34577;-84
2023/04/29 00:35:08;;;;;;;22.80;9.38;;;;;;;13.60;55.06;99013.75;4371219;32;33952;-83
2023/04/29 00:37:36;;;;;;;20.55;9.70;;;;;;;13.61;55.01;99016.31;4369583;32;32424;-84
2023/04/29 00:40:05;;;;;;;18.58;8.93;;;;;;;13.82;54.35;99014.53;4378843;32;34428;-84
2023/04/29 00:42:32;;;;;;;22.52;10.02;;;;;;;13.79;54.88;99031.06;4368643;32;34057;-84
2023/04/29 00:45:00;;;;;;;22.83;10.00;;;;;;;13.84;55.17;99020.63;4379718;32;34229;-83
2023/04/29 00:47:27;;;;;;;26.48;11.82;;;;;;;13.96;55.04;99025.78;4369170;32;34812;-84
2023/04/29 00:49:55;;;;;;;27.08;11.35;;;;;;;13.75;54.43;99028.44;4366130;32;33979;-84
2023/04/29 00:52:23;;;;;;;23.20;11.60;;;;;;;13.79;54.45;99025.00;4374997;32;34835;-85
2023/04/29 00:54:51;;;;;;;20.40;10.27;;;;;;;14.01;54.33;99031.84;4371516;32;34219;-85
2023/04/29 00:57:18;;;;;;;23.50;10.70;;;;;;;13.99;53.94;99030.12;4372557;32;34335;-84
2023/04/29 00:59:48;;;;;;;20.37;10.75;;;;;;;13.92;54.40;99021.47;4376134;32;33541;-83
2023/04/29 01:02:16;;;;;;;24.30;11.35;;;;;;;13.97;54.39;99019.69;4356056;32;34692;-87
2023/04/29 01:04:43;;;;;;;26.35;11.63;;;;;;;14.15;53.93;99023.13;4365120;32;35037;-83
2023/04/29 01:07:18;;;;;;;21.45;10.60;;;;;;;14.27;54.09;99018.72;4363999;32;34262;-84
2023/04/29 01:09:47;;;;;;;22.77;11.10;;;;;;;14.10;54.58;99012.72;4353486;32;34903;-84
2023/04/29 01:12:42;;;;;;;23.05;11.32;;;;;;;13.85;55.19;99019.75;4368816;32;33912;-84
2023/04/29 01:15:24;;;;;;;23.23;11.88;;;;;;;13.82;55.25;99015.41;4362062;32;31922;-82
2023/04/29 01:18:09;;;;;;;21.42;10.68;;;;;;;13.86;55.08;99018.84;4363264;32;33763;-87
2023/04/29 01:20:37;;;;;;;25.58;11.32;;;;;;;13.85;55.49;99019.75;4353613;32;33571;-93
2023/04/29 01:23:05;;;;;;;24.55;11.35;;;;;;;13.87;55.71;99007.59;4369081;32;33386;-84
2023/04/29 01:25:32;;;;;;;23.23;10.73;;;;;;;13.92;56.24;99008.44;4361888;32;35022;-85
2023/04/29 01:28:23;;;;;;;23.85;10.32;;;;;;;13.91;56.63;99024.09;4363070;32;34088;-85
2023/04/29 01:31:08;;;;;;;26.10;11.98;;;;;;;13.93;56.78;99027.53;4348095;32;34616;-85
2023/04/29 01:33:39;;;;;;;24.75;11.80;;;;;;;13.81;56.65;99018.87;4347192;32;33936;-85
2023/04/29 01:36:41;;;;;;;31.25;11.80;;;;;;;13.92;56.48;99011.03;4361678;32;34129;-85
2023/04/29 01:39:55;;;;;;;32.65;12.57;;;;;;;13.92;56.60;99000.63;4361522;32;33728;-85
2023/04/29 01:42:30;;;;;;;31.33;13.30;;;;;;;13.74;56.28;99000.66;4350805;32;34503;-92
2023/04/29 01:44:59;;;;;;;26.80;12.82;;;;;;;13.73;55.79;98994.59;4347655;32;33598;-88
2023/04/29 01:47:28;;;;;;;27.73;13.52;;;;;;;13.91;55.11;98995.41;4360709;32;34951;-84
2023/04/29 01:49:56;;;;;;;32.75;13.88;;;;;;;13.79;52.87;98993.72;4363082;32;33722;-85
2023/04/29 01:52:23;;;;;;;28.33;13.52;;;;;;;13.76;53.67;98991.12;4371011;32;33674;-83
2023/04/29 01:54:51;;;;;;;27.30;12.30;;;;;;;13.71;54.30;98990.25;4370645;32;33926;-84
2023/04/29 01:57:19;;;;;;;30.60;13.60;;;;;;;13.68;54.26;98995.50;4378234;32;34526;-92
2023/04/29 01:59:46;;;;;;;30.33;14.57;;;;;;;13.71;54.13;98992.84;4372634;32;33710;-84
2023/04/29 02:02:19;;;;;;;27.92;13.82;;;;;;;13.72;54.53;98994.59;4365823;32;33832;-88
2023/04/29 02:04:50;;;;;;;35.28;14.93;;;;;;;13.92;54.08;98994.53;4364230;32;34895;-89
2023/04/29 02:07:17;;;;;;;34.20;14.77;;;;;;;13.95;53.71;99000.59;4372535;32;34763;-90
2023/04/29 02:09:45;;;;;;;38.47;16.98;;;;;;;13.95;52.20;99000.59;4368448;32;33965;-84
2023/04/29 02:12:13;;;;;;;39.22;17.62;;;;;;;13.51;51.52;99001.56;4375522;32;33766;-87
2023/04/29 02:14:41;;;;;;;38.08;16.25;;;;;;;13.55;50.69;99000.69;4362349;32;34930;-85
2023/04/29 02:17:09;;;;;;;35.60;15.93;;;;;;;13.76;51.71;98989.38;4376735;32;33866;-84
2023/04/29 02:19:37;;;;;;;33.38;14.87;;;;;;;13.71;53.04;98996.31;4377165;32;33810;-96
2023/04/29 02:22:04;;;;;;;38.10;17.10;;;;;;;13.78;52.71;98995.44;4376550;32;33496;-86
2023/04/29 02:24:32;;;;;;;37.55;17.15;;;;;;;13.69;51.70;98987.66;4377486;32;34050;-83
2023/04/29 02:27:00;;;;;;;45.75;17.27;;;;;;;13.74;52.52;98990.25;4372929;32;34781;-83
2023/04/29 02:29:29;;;;;;;31.00;14.95;;;;;;;13.91;51.79;98993.69;4368580;32;34169;-83
2023/04/29 02:31:58;;;;;;;37.65;16.42;;;;;;;13.59;48.83;98989.41;4373496;32;33820;-83
2023/04/29 02:34:25;;;;;;;35.75;15.25;;;;;;;13.67;50.81;98983.31;4361473;32;33482;-84
2023/04/29 02:36:53;;;;;;;32.17;15.32;;;;;;;13.54;50.05;98983.34;4379542;32;34919;-83
2023/04/29 02:39:21;;;;;;;30.23;14.80;;;;;;;13.79;50.80;98972.87;4382869;32;34992;-84
2023/04/29 02:41:48;;;;;;;29.58;13.98;;;;;;;13.38;50.52;98971.22;4368087;32;33378;-84
2023/04/29 02:44:16;;;;;;;31.33;13.18;;;;;;;13.44;48.99;98967.75;4381564;32;33672;-83
2023/04/29 02:46:45;;;;;;;22.52;11.75;;;;;;;13.14;49.38;98962.56;4371907;32;33921;-82
2023/04/29 02:49:13;;;;;;;29.45;11.12;;;;;;;12.92;48.38;98966.03;4365354;32;34099;-84
2023/04/29 02:51:41;;;;;;;25.62;12.45;;;;;;;12.83;49.72;98953.00;4370279;32;34067;-85
2023/04/29 02:54:10;;;;;;;23.35;10.23;;;;;;;13.27;50.28;98957.37;4368664;32;33722;-82
2023/04/29 02:56:37;;;;;;;18.45;9.63;;;;;;;13.18;48.85;98959.94;4375047;32;34177;-85
2023/04/29 02:59:05;;;;;;;19.55;9.85;;;;;;;13.19;48.15;98956.47;4378773;32;35108;-85
2023/04/29 03:01:32;;;;;;;22.95;10.18;;;;;;;12.78;48.71;98968.62;4377036;32;34503;-83
2023/04/29 03:04:00;;;;;;;15.77;8.50;;;;;;;12.87;49.61;98965.16;4383139;32;33799;-82
2023/04/29 03:06:28;;;;;;;22.05;10.35;;;;;;;13.31;48.26;98974.72;4390167;32;34055;-82
2023/04/29 03:08:56;;;;;;;20.17;10.45;;;;;;;13.27;49.82;98973.84;4386881;32;33980;-83
2023/04/29 03:11:24;;;;;;;20.10;9.75;;;;;;;13.44;50.93;98975.56;4375008;32;33651;-82
2023/04/29 03:13:51;;;;;;;20.98;9.85;;;;;;;13.44;51.06;98973.81;4371036;32;35278;-83
2023/04/29 03:16:20;;;;;;;19.35;8.68;;;;;;;13.48;51.22;98972.94;4369904;32;35037;-83
2023/04/29 03:18:48;;;;;;;16.70;8.80;;;;;;;13.51;49.26;98977.28;4372245;32;34595;-83
2023/04/29 03:21:16;;;;;;;18.65;9.55;;;;;;;13.58;48.81;98976.41;4376642;32;33850;-84
2023/04/29 03:23:44;;;;;;;17.27;8.05;;;;;;;13.61;50.48;98979.87;4387790;32;34031;-84
2023/04/29 03:26:12;;;;;;;15.55;8.55;;;;;;;13.63;47.31;98978.09;4382244;32;33586;-95
2023/04/29 03:28:40;;;;;;;19.90;9.10;;;;;;;13.63;50.19;98982.44;4379382;32;34286;-88
2023/04/29 03:31:10;;;;;;;20.73;9.55;;;;;;;13.66;50.64;98982.44;4378819;32;33582;-96
2023/04/29 03:33:38;;;;;;;20.80;8.88;;;;;;;13.77;49.40;98979.81;4382660;32;33982;-92
2023/04/29 03:36:07;;;;;;;20.67;9.35;;;;;;;13.83;48.08;98974.59;4364495;32;33784;-84
2023/04/29 03:38:35;;;;;;;21.60;9.45;;;;;;;13.29;49.11;98977.31;4361150;32;34920;-90
2023/04/29 03:41:04;;;;;;;23.02;9.65;;;;;;;13.35;48.75;98974.69;4372685;32;34618;-93
2023/04/29 03:43:31;;;;;;;22.48;9.18;;;;;;;13.42;47.77;98988.59;4379674;32;33691;-94
2023/04/29 03:45:59;;;;;;;17.02;9.57;;;;;;;13.53;47.80;98986.81;4376217;32;35180;-86
2023/04/29 03:48:26;;;;;;;19.52;9.25;;;;;;;13.39;48.47;98991.19;4358168;32;34963;-83
2023/04/29 03:50:54;;;;;;;19.48;8.32;;;;;;;13.58;49.25;98998.09;4369462;32;33641;-88
2023/04/29 03:53:25;;;;;;;16.45;9.52;;;;;;;13.65;49.28;99001.56;4364912;32;34839;-91
2023/04/29 03:55:53;;;;;;;18.60;8.32;;;;;;;13.82;50.54;98999.75;4351888;32;33824;-84
2023/04/29 03:58:22;;;;;;;19.42;8.82;;;;;;;13.91;51.11;99008.44;4357041;32;34082;-83
2023/04/29 04:00:51;;;;;;;17.27;8.13;;;;;;;13.93;51.06;99007.56;4385787;32;33588;-95
2023/04/29 04:03:21;;;;;;;16.90;8.52;;;;;;;14.01;50.55;99007.53;4385902;32;33906;-84
2023/04/29 04:06:03;;;;;;;17.40;9.30;;;;;;;14.06;50.58;99009.25;4384336;32;33900;-84
2023/04/29 04:08:31;;;;;;;15.40;7.93;;;;;;;14.08;50.77;99007.50;4389497;32;34470;-84
2023/04/29 04:11:02;;;;;;;16.00;8.55;;;;;;;14.05;50.85;99007.53;4382369;32;33671;-84
2023/04/29 04:13:30;;;;;;;16.92;8.85;;;;;;;14.08;51.12;99010.09;4374629;32;34015;-85
2023/04/29 04:15:59;;;;;;;13.85;7.70;;;;;;;14.06;50.85;99005.78;4373921;32;34548;-85
2023/04/29 04:18:27;;;;;;;12.18;7.85;;;;;;;13.98;50.97;99004.91;4370721;32;34242;-91
2023/04/29 04:20:55;;;;;;;13.98;7.00;;;;;;;14.01;51.33;99011.00;4372216;32;33785;-84
2023/04/29 04:23:24;;;;;;;15.88;7.90;;;;;;;14.09;51.39;99011.84;4379031;32;33578;-85
2023/04/29 04:25:52;;;;;;;11.68;6.95;;;;;;;13.99;51.95;99012.75;4382285;32;35856;-85
2023/04/29 04:28:21;;;;;;;14.27;7.37;;;;;;;14.14;51.52;99010.97;4381730;32;33954;-88
2023/04/29 04:30:49;;;;;;;11.52;6.85;;;;;;;14.08;51.48;99010.09;4365373;32;32127;-88
2023/04/29 04:33:17;;;;;;;12.05;7.12;;;;;;;14.27;51.56;99008.28;4359615;32;34738;-91
2023/04/29 04:35:45;;;;;;;12.52;6.30;;;;;;;14.00;52.04;99011.88;4363377;32;34979;-83
2023/04/29 04:38:14;;;;;;;15.10;6.72;;;;;;;14.21;51.67;99017.91;4386998;32;35109;-83
2023/04/29 04:40:41;;;;;;;10.00;6.10;;;;;;;13.98;51.33;99021.44;4377064;32;33608;-85
2023/04/29 04:43:10;;;;;;;9.65;5.90;;;;;;;13.94;51.55;99019.72;4350513;32;34016;-84
2023/04/29 04:45:39;;;;;;;10.85;7.07;;;;;;;13.96;51.69;99017.97;4367565;32;34685;-91
2023/04/29 04:48:07;;;;;;;14.43;6.65;;;;;;;13.78;50.71;99010.19;4365045;32;34327;-89
2023/04/29 04:50:35;;;;;;;12.23;6.40;;;;;;;13.87;49.77;99018.00;4360920;32;34599;-84
2023/04/29 04:53:03;;;;;;;10.20;5.47;;;;;;;13.77;51.35;99018.91;4383319;32;35153;-85
2023/04/29 04:55:32;;;;;;;9.70;6.07;;;;;;;13.85;51.65;99010.19;4384118;32;33830;-84
2023/04/29 04:58:00;;;;;;;13.90;7.30;;;;;;;14.06;51.59;99003.19;4384640;32;34213;-85
2023/04/29 05:00:27;;;;;;;12.77;6.85;;;;;;;13.22;50.94;98990.28;4361744;32;34100;-86
2023/04/29 05:02:55;;;;;;;12.98;6.65;;;;;;;13.49;49.54;98995.53;4382015;32;34096;-85
2023/04/29 05:05:22;;;;;;;12.82;5.95;;;;;;;13.35;50.59;98987.72;4375805;32;34322;-84
2023/04/29 05:07:50;;;;;;;13.38;5.90;;;;;;;13.04;49.35;98992.06;4378339;32;34849;-86
2023/04/29 05:10:19;;;;;;;10.48;5.87;;;;;;;12.90;49.26;98998.97;4369393;32;34356;-94
2023/04/29 05:12:47;;;;;;;14.05;7.20;;;;;;;12.89;49.86;98994.66;4373230;32;33584;-87
2023/04/29 05:15:15;;;;;;;11.00;6.07;;;;;;;12.33;49.83;98996.28;4379393;32;34045;-94
2023/04/29 05:17:43;;;;;;;12.98;7.40;;;;;;;12.82;50.52;98998.09;4376516;32;34329;-94
2023/04/29 05:20:11;;;;;;;12.25;6.72;;;;;;;12.67;50.25;98996.34;4376929;32;33617;-96
2023/04/29 05:22:39;;;;;;;12.13;6.28;;;;;;;13.00;49.02;99003.34;4378057;32;32214;-95
2023/04/29 05:25:07;;;;;;;12.90;6.43;;;;;;;13.00;49.43;99008.53;4375906;32;34951;-95
2023/04/29 05:27:34;;;;;;;13.57;7.03;;;;;;;12.97;48.95;99000.72;4379322;32;33631;-86
2023/04/29 05:30:03;;;;;;;10.82;7.35;;;;;;;12.94;48.78;99002.44;4379357;32;34138;-91
2023/04/29 05:32:32;;;;;;;9.77;6.50;;;;;;;13.28;49.52;99003.34;4373061;32;34544;-93
2023/04/29 05:35:00;;;;;;;10.70;6.47;;;;;;;13.04;48.38;99012.88;4382118;32;34015;-84
2023/04/29 05:37:30;;;;;;;12.40;7.80;;;;;;;12.98;48.90;99015.47;4379584;32;34680;-84
2023/04/29 05:39:57;;;;;;;16.20;7.10;;;;;;;13.11;48.55;99011.16;4386959;32;33496;-95
2023/04/29 05:42:26;;;;;;;13.65;7.10;;;;;;;13.29;48.70;99007.69;4383762;32;33972;-84
2023/04/29 05:44:54;;;;;;;12.70;6.93;;;;;;;13.34;49.35;99008.56;4381255;32;35337;-84
2023/04/29 05:47:21;;;;;;;12.70;7.00;;;;;;;13.24;48.94;99012.91;4374459;32;35011;-85
2023/04/29 05:49:49;;;;;;;11.82;6.47;;;;;;;13.60;48.94;99013.75;4381864;32;33416;-84
2023/04/29 05:52:18;;;;;;;12.90;7.65;;;;;;;13.26;48.71;99010.28;4385744;32;35227;-84
2023/04/29 05:54:46;;;;;;;11.95;6.80;;;;;;;13.39;50.04;99012.03;4384461;32;34944;-85
2023/04/29 05:57:13;;;;;;;11.50;7.65;;;;;;;13.70;49.96;99023.25;4384133;32;34710;-91
2023/04/29 05:59:41;;;;;;;10.77;6.68;;;;;;;13.60;48.36;99021.56;4380438;32;34259;-83
2023/04/29 06:02:10;;;;;;;14.95;7.25;;;;;;;13.34;48.72;99022.44;4382882;32;33432;-83
2023/04/29 06:04:40;;;;;;;10.98;7.35;;;;;;;13.20;49.40;99034.56;4386144;32;35179;-84
2023/04/29 06:07:08;;;;;;;12.13;7.20;;;;;;;13.69;47.68;99029.34;4381420;32;34976;-83
2023/04/29 06:09:37;;;;;;;13.38;7.18;;;;;;;13.58;48.01;99026.75;4370564;32;33233;-87
2023/04/29 06:12:05;;;;;;;12.75;7.28;;;;;;;13.73;47.77;99025.00;4367072;32;33775;-90
2023/04/29 06:14:33;;;;;;;14.70;7.78;;;;;;;13.74;48.11;99024.09;4366534;32;33503;-84
2023/04/29 06:17:00;;;;;;;12.95;7.87;;;;;;;12.84;49.06;99019.78;4371299;32;34318;-90
2023/04/29 06:19:28;;;;;;;13.45;7.65;;;;;;;12.98;48.89;99018.06;4358397;32;33788;-84
2023/04/29 06:21:57;;;;;;;17.87;7.85;;;;;;;12.51;50.00;99025.81;4363066;32;33809;-84
2023/04/29 06:24:25;;;;;;;12.52;7.10;;;;;;;13.14;49.83;99016.31;4363554;32;35425;-84
2023/04/29 06:26:53;;;;;;;14.35;8.32;;;;;;;12.72;49.09;99012.81;4342482;32;32606;-84
2023/04/29 06:29:21;;;;;;;11.82;7.05;;;;;;;12.74;49.96;99018.91;4378557;32;34118;-85
2023/04/29 06:31:50;;;;;;;13.88;7.28;;;;;;;12.87;49.10;99019.78;4352478;32;33908;-86
2023/04/29 06:34:18;;;;;;;15.60;8.13;;;;;;;13.18;48.93;99018.06;4372991;32;33790;-84
2023/04/29 06:36:46;;;;;;;14.55;7.35;;;;;;;12.98;48.79;99025.87;4377841;32;34289;-86
2023/04/29 06:39:15;;;;;;;12.90;7.22;;;;;;;13.21;48.32;99015.47;4370804;32;32916;-87
2023/04/29 06:41:45;;;;;;;12.45;8.32;;;;;;;13.39;48.14;99025.03;4368618;32;32779;-88
2023/04/29 06:44:13;;;;;;;13.13;7.47;;;;;;;13.54;48.54;99022.41;4369862;32;33794;-83
2023/04/29 06:46:40;;;;;;;12.75;7.68;;;;;;;13.31;48.32;99021.56;4362438;32;33974;-89
2023/04/29 06:49:08;;;;;;;12.30;8.27;;;;;;;13.58;48.39;99021.53;4370059;32;33829;-84
2023/04/29 06:51:36;;;;;;;10.55;7.12;;;;;;;13.23;48.93;99018.97;4362479;32;34748;-81
2023/04/29 06:54:04;;;;;;;14.02;7.47;;;;;;;13.20;48.55;99020.69;4364806;32;35201;-83
2023/04/29 06:56:32;;;;;;;12.77;7.53;;;;;;;13.40;48.44;99024.16;4367230;32;34190;-96
2023/04/29 06:58:59;;;;;;;12.07;7.43;;;;;;;13.73;48.55;99030.19;4362264;32;33783;-82
2023/04/29 07:01:27;;;;;;;13.70;7.50;;;;;;;13.37;49.09;99029.38;4361209;32;34618;-83
2023/04/29 07:03:55;;;;;;;17.55;7.85;;;;;;;13.65;48.73;99027.63;4362534;32;34661;-84
2023/04/29 07:06:23;;;;;;;12.37;7.80;;;;;;;13.98;48.41;99028.38;4371244;32;33969;-89
2023/04/29 07:08:51;;;;;;;13.00;7.30;;;;;;;13.50;48.28;99031.09;4374147;32;33506;-91
2023/04/29 07:11:23;;;;;;;14.60;8.07;;;;;;;13.97;47.69;99035.34;4374284;32;33858;-84
2023/04/29 07:13:52;;;;;;;13.98;7.40;;;;;;;13.85;48.13;99024.94;4378504;32;34629;-84
2023/04/29 07:16:20;;;;;;;14.02;7.60;;;;;;;13.77;47.86;99039.75;4366642;32;33734;-83
2023/04/29 07:18:48;;;;;;;11.65;8.10;;;;;;;13.70;48.14;99031.06;4366442;32;34032;-95
2023/04/29 07:21:16;;;;;;;13.90;8.35;;;;;;;13.83;48.95;99035.41;4365341;32;34219;-83
2023/04/29 07:23:43;;;;;;;11.55;7.95;;;;;;;13.86;48.24;99030.19;4367224;32;34303;-84
2023/04/29 07:26:12;;;;;;;16.45;9.65;;;;;;;13.90;48.30;99028.41;4368216;32;34103;-84
2023/04/29 07:28:42;;;;;;;15.68;10.73;;;;;;;13.95;48.42;99031.88;4366005;32;34561;-84
2023/04/29 07:31:11;;;;;;;14.38;8.68;;;;;;;13.87;47.62;99037.12;4372400;32;33859;-88
2023/04/29 07:33:39;;;;;;;14.32;8.50;;;;;;;14.06;48.66;99029.25;4360530;32;34070;-84
2023/04/29 07:36:09;;;;;;;12.65;8.70;;;;;;;14.41;48.26;99031.69;4371540;32;33749;-91
2023/04/29 07:38:37;;;;;;;11.63;8.32;;;;;;;14.56;49.16;99025.56;4369353;32;33516;-91
2023/04/29 07:41:05;;;;;;;12.93;8.13;;;;;;;14.54;46.75;99028.16;4364668;32;34608;-82
2023/04/29 07:43:33;;;;;;;12.32;8.20;;;;;;;14.02;47.81;99028.38;4365051;32;32880;-83
2023/04/29 07:46:01;;;;;;;11.45;8.25;;;;;;;14.13;47.26;99020.53;4371881;32;34080;-84
2023/04/29 07:48:28;;;;;;;15.73;7.22;;;;;;;14.51;46.96;99020.38;4378505;32;33961;-85
2023/04/29 07:50:56;;;;;;;11.82;8.32;;;;;;;14.72;46.86;99015.91;4368755;32;33479;-86
2023/04/29 07:53:23;;;;;;;13.25;7.22;;;;;;;15.36;46.69;99022.38;4368432;32;34836;-83
2023/04/29 07:55:51;;;;;;;9.88;6.87;;;;;;;15.20;45.38;99022.50;4378180;32;34209;-83
2023/04/29 07:58:19;;;;;;;14.50;7.53;;;;;;;15.34;44.26;99019.78;4378918;32;34458;-84
2023/04/29 08:00:47;;;;;;;12.65;6.68;;;;;;;15.99;43.32;99014.81;4380293;32;34219;-83
2023/04/29 08:03:15;;;;;;;10.50;7.57;;;;;;;15.80;43.59;99032.44;4370170;32;33745;-83
2023/04/29 08:05:43;;;;;;;11.07;6.87;;;;;;;15.88;44.21;99033.22;4370984;32;33344;-84
2023/04/29 08:08:14;;;;;;;12.27;5.93;;;;;;;16.16;42.73;99031.16;4377146;32;33787;-85
2023/04/29 08:10:43;;;;;;;12.57;6.70;;;;;;;16.21;42.72;99036.31;4373763;32;34117;-84
2023/04/29 08:13:10;;;;;;;11.32;6.75;;;;;;;15.39;43.37;99035.44;4361933;32;35187;-86
2023/04/29 08:15:39;;;;;;;13.82;6.00;;;;;;;15.78;43.01;99035.06;4363560;32;33958;-89
2023/04/29 08:18:06;;;;;;;13.07;6.10;;;;;;;15.23;43.88;99035.56;4369859;32;33579;-83
2023/04/29 08:20:34;;;;;;;9.75;5.40;;;;;;;15.10;42.19;99031.28;4360770;32;33559;-86
2023/04/29 08:23:01;;;;;;;11.85;5.25;;;;;;;15.49;41.85;99030.09;4364517;32;34277;-93
2023/04/29 08:25:29;;;;;;;11.50;5.80;;;;;;;15.97;41.95;99030.50;4369279;32;33824;-83
2023/04/29 08:27:57;;;;;;;9.88;5.07;;;;;;;16.01;41.24;99029.56;4368528;32;33597;-87
2023/04/29 08:30:24;;;;;;;9.98;5.40;;;;;;;15.92;41.34;99031.44;4369371;32;33590;-83
2023/04/29 08:32:53;;;;;;;9.32;5.45;;;;;;;16.20;42.39;99027.63;4370783;32;33971;-83
2023/04/29 08:35:20;;;;;;;11.75;6.40;;;;;;;15.92;41.39;99026.22;4361741;32;33885;-83
2023/04/29 08:37:48;;;;;;;11.98;5.97;;;;;;;15.98;41.56;99021.75;4370103;32;33411;-89
2023/04/29 08:40:15;;;;;;;10.63;6.07;;;;;;;15.80;41.34;99028.09;4372148;32;33680;-92
2023/04/29 08:42:44;;;;;;;9.68;5.18;;;;;;;15.70;41.36;99022.97;4368665;32;34654;-83
2023/04/29 08:45:18;;;;;;;10.70;6.53;;;;;;;16.16;41.21;99025.91;4354376;32;33818;-88
2023/04/29 08:47:46;;;;;;;11.18;5.65;;;;;;;16.29;40.27;99022.28;4351967;32;33731;-85
2023/04/29 08:50:14;;;;;;;9.52;5.70;;;;;;;16.47;40.73;99031.63;4368654;32;33598;-93
2023/04/29 08:52:41;;;;;;;10.32;5.87;;;;;;;16.35;41.13;99031.78;4360464;32;34270;-84
2023/04/29 08:55:09;;;;;;;10.18;5.00;;;;;;;16.31;41.02;99043.19;4364733;32;34571;-85
2023/04/29 08:57:38;;;;;;;13.02;5.28;;;;;;;16.52;39.93;99037.69;4373292;32;33984;-85
2023/04/29 09:00:09;;;;;;;10.38;5.12;;;;;;;16.74;39.23;99040.03;4351433;32;33725;-93
2023/04/29 09:02:42;;;;;;;15.45;6.18;;;;;;;16.63;39.58;99047.13;4349728;32;33741;-85
2023/04/29 09:05:10;;;;;;;11.07;5.55;;;;;;;16.10;39.44;99049.56;4359546;32;34154;-90
2023/04/29 09:07:38;;;;;;;10.80;5.62;;;;;;;16.21;40.42;99037.22;4374091;32;33530;-84
2023/04/29 09:10:06;;;;;;;9.07;4.62;;;;;;;16.47;40.02;99046.47;4351566;32;33552;-91
2023/04/29 09:12:35;;;;;;;9.55;5.18;;;;;;;15.82;40.77;99041.13;4351539;32;33887;-93
2023/04/29 09:15:03;;;;;;;13.48;5.15;;;;;;;16.03;40.70;99046.13;4377182;32;34265;-92
2023/04/29 09:17:46;;;;;;;10.48;4.47;;;;;;;16.29;39.67;99043.22;4363749;32;33578;-96
2023/04/29 09:20:20;;;;;;;7.55;4.45;;;;;;;15.96;40.33;99039.25;4364446;32;33471;-93
2023/04/29 09:22:52;;;;;;;11.32;4.55;;;;;;;16.44;39.36;99042.16;4367777;32;34743;-84
2023/04/29 09:25:20;;;;;;;11.85;5.10;;;;;;;16.49;39.70;99040.34;4361092;32;35050;-86
2023/04/29 09:27:48;;;;;;;8.65;4.95;;;;;;;16.54;40.21;99042.88;4361720;32;33527;-82
2023/04/29 09:30:15;;;;;;;10.65;5.70;;;;;;;15.79;40.35;99049.84;4361833;32;33351;-95
2023/04/29 09:32:46;;;;;;;11.02;5.25;;;;;;;16.16;40.38;99040.75;4361821;32;34680;-90
2023/04/29 09:35:20;;;;;;;10.85;5.03;;;;;;;16.35;40.23;99044.88;4372060;32;34866;-85
2023/04/29 09:37:48;;;;;;;11.18;5.25;;;;;;;16.35;39.20;99039.63;4365507;32;34174;-85
2023/04/29 09:40:29;;;;;;;8.20;4.30;;;;;;;16.73;39.08;99035.66;4363557;32;34054;-84
2023/04/29 09:42:57;;;;;;;10.02;4.90;;;;;;;16.98;38.70;99042.28;4364075;32;33900;-86
2023/04/29 09:45:35;;;;;;;9.35;4.47;;;;;;;16.86;38.83;99037.25;4384550;32;34331;-93
2023/04/29 09:48:04;;;;;;;10.45;4.60;;;;;;;17.00;36.90;99031.78;4392119;32;33590;-93
2023/04/29 09:50:32;;;;;;;12.40;4.87;;;;;;;17.42;36.38;99032.84;4365874;32;34794;-85
2023/04/29 09:53:00;;;;;;;10.10;4.57;;;;;;;17.48;36.39;99032.75;4376856;32;34357;-83
2023/04/29 09:55:30;;;;;;;9.73;4.12;;;;;;;17.34;36.02;99020.75;4370485;32;34197;-96
2023/04/29 09:57:59;;;;;;;8.15;3.47;;;;;;;17.64;35.72;99029.84;4363023;32;33391;-82
2023/04/29 10:00:31;;;;;;;8.27;3.70;;;;;;;17.06;35.03;99030.84;4378046;32;33961;-89
2023/04/29 10:03:03;;;;;;;6.85;3.45;;;;;;;17.29;35.49;99033.94;4376413;32;34835;-86
2023/04/29 10:05:31;;;;;;;6.47;3.53;;;;;;;17.71;35.38;99027.09;4376593;32;34117;-85
2023/04/29 10:07:59;;;;;;;9.43;4.57;;;;;;;17.60;36.00;99033.41;4376553;32;33334;-90
2023/04/29 10:10:29;;;;;;;10.85;4.82;;;;;;;17.84;34.96;99038.25;4359751;32;33913;-94
2023/04/29 10:12:58;;;;;;;9.65;4.90;;;;;;;17.78;36.10;99032.25;4362634;32;33534;-90
2023/04/29 10:15:31;;;;;;;8.18;4.40;;;;;;;17.38;36.40;99027.69;4363522;32;34932;-83
2023/04/29 10:18:02;;;;;;;10.50;4.68;;;;;;;17.55;36.84;99030.03;4376513;32;34447;-91
2023/04/29 10:20:31;;;;;;;7.80;3.72;;;;;;;17.59;35.78;99029.06;4377059;32;34551;-93
2023/04/29 10:22:59;;;;;;;8.02;3.60;;;;;;;17.27;35.98;99017.37;4363170;32;34835;-95
2023/04/29 10:25:28;;;;;;;9.88;4.37;;;;;;;17.58;36.23;99030.84;4347996;32;33820;-93
2023/04/29 10:27:56;;;;;;;9.05;5.30;;;;;;;17.82;37.09;99031.31;4360685;32;33346;-95
2023/04/29 10:30:24;;;;;;;8.82;4.45;;;;;;;17.91;37.44;99026.75;4358276;32;34618;-83
2023/04/29 10:32:52;;;;;;;8.10;3.65;;;;;;;17.97;38.69;99024.00;4348147;32;34192;-89
2023/04/29 10:35:24;;;;;;;10.10;3.92;;;;;;;17.95;36.60;99017.91;4375904;32;35118;-94
2023/04/29 10:37:52;;;;;;;7.00;3.40;;;;;;;18.20;37.22;99004.31;4376409;32;34703;-84
2023/04/29 10:40:41;;;;;;;7.95;4.35;;;;;;;18.22;36.55;99005.13;4354610;32;33533;-89
2023/04/29 10:43:09;;;;;;;10.50;5.18;;;;;;;17.72;36.63;99001.72;4355732;32;34168;-86
2023/04/29 10:45:37;;;;;;;8.38;4.70;;;;;;;18.31;36.60;99001.47;4379247;32;34008;-87
2023/04/29 10:48:10;;;;;;;8.00;3.85;;;;;;;18.52;36.18;98985.25;4388242;32;34127;-96
2023/04/29 10:50:45;;;;;;;7.05;3.90;;;;;;;18.44;35.97;98981.94;4373492;32;34549;-96
2023/04/29 10:53:18;;;;;;;7.82;4.28;;;;;;;19.03;37.14;98981.50;4386401;32;33766;-94
2023/04/29 10:55:47;;;;;;;11.55;5.00;;;;;;;19.41;35.37;98973.50;4385816;32;34385;-92
2023/04/29 10:58:45;;;;;;;8.45;4.22;;;;;;;19.31;34.69;98973.75;4382652;32;33496;-87
2023/04/29 11:01:15;;;;;;;10.77;4.82;;;;;;;19.31;37.25;98973.75;4374706;32;33912;-83
2023/04/29 11:03:54;;;;;;;12.52;4.70;;;;;;;19.27;38.20;98974.75;4384832;32;33475;-91
2023/04/29 11:06:39;;;;;;;9.05;4.32;;;;;;;19.69;35.72;98957.00;4367765;32;34128;-86
2023/04/29 11:09:13;;;;;;;8.40;4.18;;;;;;;19.86;34.14;98959.16;4340528;32;32313;-89
2023/04/29 11:11:48;;;;;;;8.82;3.85;;;;;;;20.13;33.91;98952.25;4373031;32;34369;-84
2023/04/29 11:14:25;;;;;;;13.95;6.20;;;;;;;19.84;34.06;98955.72;4369727;32;34244;-83
2023/04/29 11:16:59;;;;;;;9.07;4.10;;;;;;;20.12;35.90;98954.03;4366031;32;34942;-84
2023/04/29 11:19:35;;;;;;;6.70;3.72;;;;;;;20.82;34.23;98945.72;4351298;32;33550;-85
2023/04/29 11:22:12;;;;;;;6.68;3.60;;;;;;;20.68;33.02;98945.31;4368479;32;34114;-82
2023/04/29 11:24:52;;;;;;;9.05;4.50;;;;;;;20.53;33.39;98941.41;4381669;32;35630;-92
2023/04/29 11:27:24;;;;;;;13.35;4.53;;;;;;;20.28;34.75;98946.53;4365173;32;34131;-84
2023/04/29 11:29:59;;;;;;;10.32;4.35;;;;;;;20.49;34.71;98945.03;4361886;32;33370;-91
2023/04/29 11:32:29;;;;;;;9.07;4.30;;;;;;;19.38;34.76;98947.28;4372466;32;34222;-94
2023/04/29 11:35:11;;;;;;;9.77;4.97;;;;;;;20.12;35.67;98940.87;4355140;32;34112;-87